Time;durP1;ratioP1;P1;durP2;ratioP2;P2;SDS_P1;SDS_P2;PMS_P1;PMS_P2;Temp;Humidity;BMP_temperature;BMP_pressure;BME280_temperature;BME280_humidity;BME280_pressure;Samples;Min_cycle;Max_cycle;Signal;HPM_P1;HPM_P2
2022/04/13 00:01:50;;;;;;;11.50;5.43;;;12.00;99.90;;;;;;5032511;28;20087;-58
2022/04/13 00:04:18;;;;;;;12.52;4.95;;;12.00;99.90;;;;;;5034745;28;20049;-60
2022/04/13 00:06:44;;;;;;;17.27;5.93;;;11.90;99.90;;;;;;5033242;28;20500;-59
2022/04/13 00:09:11;;;;;;;12.70;5.80;;;11.90;99.90;;;;;;5034637;28;20467;-59
2022/04/13 00:11:38;;;;;;;22.80;6.57;;;11.80;99.90;;;;;;5034520;28;20060;-59
2022/04/13 00:14:05;;;;;;;18.35;6.20;;;11.90;99.90;;;;;;5033635;28;20068;-59
2022/04/13 00:16:32;;;;;;;16.17;6.97;;;11.90;99.90;;;;;;5033233;28;20588;-58
2022/04/13 00:18:58;;;;;;;14.05;5.88;;;11.90;99.90;;;;;;5034268;28;20141;-59
2022/04/13 00:21:25;;;;;;;12.27;6.72;;;11.90;99.90;;;;;;5034549;28;20045;-59
2022/04/13 00:23:52;;;;;;;14.63;6.30;;;11.80;99.90;;;;;;5034273;28;20140;-58
2022/04/13 00:26:19;;;;;;;18.05;6.68;;;11.80;99.90;;;;;;5029296;28;20053;-60
2022/04/13 00:28:45;;;;;;;13.27;6.47;;;11.60;99.90;;;;;;5034148;28;20046;-59
2022/04/13 00:31:12;;;;;;;14.70;7.60;;;11.60;99.90;;;;;;5033937;28;20049;-60
2022/04/13 00:33:39;;;;;;;16.52;8.32;;;11.70;99.90;;;;;;5032466;28;20475;-60
2022/04/13 00:36:06;;;;;;;18.95;9.02;;;11.70;99.90;;;;;;5030170;28;20451;-60
2022/04/13 00:38:33;;;;;;;23.98;10.25;;;11.70;99.90;;;;;;5032613;28;20100;-59
2022/04/13 00:40:59;;;;;;;17.92;8.50;;;11.70;99.90;;;;;;5034175;28;20053;-60
2022/04/13 00:43:26;;;;;;;20.33;8.25;;;11.70;99.90;;;;;;5033805;28;20080;-60
2022/04/13 00:45:53;;;;;;;19.63;8.45;;;11.70;99.90;;;;;;5034025;28;20077;-60
2022/04/13 00:48:28;;;;;;;18.08;11.70;;;11.70;99.90;;;;;;5033651;28;20129;-59
2022/04/13 00:50:55;;;;;;;23.75;9.73;;;11.70;99.90;;;;;;5022270;28;20053;-59
2022/04/13 00:53:23;;;;;;;16.20;7.95;;;11.60;99.90;;;;;;5019666;28;20081;-59
2022/04/13 00:55:50;;;;;;;16.23;8.48;;;11.70;99.90;;;;;;5031616;28;20455;-59
2022/04/13 00:58:17;;;;;;;20.98;9.48;;;11.70;99.90;;;;;;5016816;28;20092;-60
2022/04/13 01:00:50;;;;;;;20.35;10.70;;;11.60;99.90;;;;;;5033603;28;20535;-60
2022/04/13 01:03:21;;;;;;;18.35;7.60;;;11.60;99.90;;;;;;5017138;28;20100;-59
2022/04/13 01:05:48;;;;;;;20.50;8.35;;;11.60;99.90;;;;;;5031409;28;20088;-59
2022/04/13 01:08:17;;;;;;;17.40;9.23;;;11.60;99.90;;;;;;5016192;28;20072;-60
2022/04/13 01:10:45;;;;;;;18.48;9.35;;;11.60;99.90;;;;;;5033085;28;20049;-60
2022/04/13 01:13:12;;;;;;;19.10;9.68;;;11.60;99.90;;;;;;5032750;28;20095;-60
2022/04/13 01:15:39;;;;;;;20.38;9.18;;;11.60;99.90;;;;;;5033263;28;20416;-60
2022/04/13 01:18:06;;;;;;;18.52;7.57;;;11.60;99.90;;;;;;5013673;28;20073;-59
2022/04/13 01:20:34;;;;;;;20.70;9.13;;;11.60;99.90;;;;;;5027856;28;20080;-59
2022/04/13 01:23:01;;;;;;;21.90;10.43;;;11.50;99.90;;;;;;5030706;28;20092;-59
2022/04/13 01:25:29;;;;;;;16.25;9.15;;;11.50;99.90;;;;;;5032340;28;20081;-60
2022/04/13 01:27:55;;;;;;;27.30;10.85;;;11.50;99.90;;;;;;5033147;28;20057;-60
2022/04/13 01:30:24;;;;;;;14.88;9.80;;;11.40;99.90;;;;;;5031528;28;20072;-60
2022/04/13 01:32:51;;;;;;;17.63;8.93;;;11.40;99.90;;;;;;5057993;28;20132;-59
2022/04/13 01:35:18;;;;;;;21.25;9.88;;;11.40;99.90;;;;;;5031511;28;20052;-59
2022/04/13 01:37:45;;;;;;;25.33;10.63;;;11.40;99.90;;;;;;5032940;28;20084;-60
2022/04/13 01:40:12;;;;;;;20.17;12.15;;;11.40;99.90;;;;;;5032841;28;20045;-59
2022/04/13 01:42:38;;;;;;;21.15;10.05;;;11.30;99.90;;;;;;5032778;28;20084;-60
2022/04/13 01:45:06;;;;;;;19.17;10.65;;;11.30;99.90;;;;;;5014980;28;20061;-60
2022/04/13 01:47:32;;;;;;;17.83;11.50;;;11.30;99.90;;;;;;5032852;28;20092;-59
2022/04/13 01:49:59;;;;;;;17.83;9.77;;;11.30;99.90;;;;;;5031333;28;20049;-59
2022/04/13 01:52:26;;;;;;;18.45;10.02;;;11.30;99.90;;;;;;5031077;28;20041;-60
2022/04/13 01:54:53;;;;;;;26.25;12.00;;;11.30;99.90;;;;;;5022429;28;20076;-59
2022/04/13 01:57:22;;;;;;;21.50;12.32;;;11.30;99.90;;;;;;5030113;28;20049;-59
2022/04/13 01:59:49;;;;;;;18.08;11.30;;;11.30;99.90;;;;;;5032912;28;20073;-59
2022/04/13 02:02:16;;;;;;;22.25;11.55;;;11.30;99.90;;;;;;5031189;28;20128;-58
2022/04/13 02:04:43;;;;;;;21.55;10.90;;;11.30;99.90;;;;;;5030969;28;20042;-58
2022/04/13 02:07:10;;;;;;;19.48;10.73;;;11.30;99.90;;;;;;5032244;28;20091;-58
2022/04/13 02:09:37;;;;;;;19.15;10.23;;;11.30;99.90;;;;;;5032372;28;20132;-59
2022/04/13 02:12:04;;;;;;;21.90;10.93;;;11.30;99.90;;;;;;5032015;28;20069;-59
2022/04/13 02:14:31;;;;;;;16.83;10.57;;;11.30;99.90;;;;;;5032615;28;20053;-59
2022/04/13 02:16:57;;;;;;;18.55;9.80;;;11.40;99.90;;;;;;5032229;28;20037;-59
2022/04/13 02:19:24;;;;;;;18.52;11.88;;;11.40;99.90;;;;;;5032212;28;20132;-60
2022/04/13 02:21:51;;;;;;;18.38;10.63;;;11.40;99.90;;;;;;5029712;28;20046;-59
2022/04/13 02:24:18;;;;;;;25.00;12.70;;;11.40;99.90;;;;;;5029679;28;20095;-59
2022/04/13 02:26:45;;;;;;;21.85;10.57;;;11.50;99.90;;;;;;5031615;28;20037;-59
2022/04/13 02:29:11;;;;;;;19.95;12.07;;;11.50;99.90;;;;;;5032354;28;20049;-59
2022/04/13 02:31:38;;;;;;;18.90;10.88;;;11.50;99.90;;;;;;5031631;28;20865;-60
2022/04/13 02:34:05;;;;;;;20.88;11.95;;;11.50;99.90;;;;;;5030580;28;20042;-59
2022/04/13 02:36:32;;;;;;;18.55;10.10;;;11.60;99.90;;;;;;5030685;28;20057;-59
2022/04/13 02:38:59;;;;;;;14.30;9.27;;;11.60;99.90;;;;;;5030694;28;20072;-59
2022/04/13 02:41:26;;;;;;;19.25;8.98;;;11.60;99.90;;;;;;5032184;28;20099;-59
2022/04/13 02:43:53;;;;;;;17.73;8.93;;;11.60;99.90;;;;;;5028838;28;20084;-60
2022/04/13 02:46:19;;;;;;;17.70;9.45;;;11.70;99.90;;;;;;5031887;28;20088;-59
2022/04/13 02:48:46;;;;;;;16.77;9.10;;;11.70;99.90;;;;;;5031374;28;20063;-59
2022/04/13 02:51:14;;;;;;;20.27;9.07;;;11.70;99.90;;;;;;5031739;28;20165;-59
2022/04/13 02:53:41;;;;;;;17.88;9.52;;;11.80;99.90;;;;;;5028876;28;20057;-59
2022/04/13 02:56:08;;;;;;;13.65;7.78;;;11.80;99.90;;;;;;5031691;28;20544;-60
2022/04/13 02:58:35;;;;;;;15.27;9.48;;;11.70;99.90;;;;;;5031598;28;20068;-58
2022/04/13 03:01:03;;;;;;;17.23;9.60;;;11.80;99.90;;;;;;5031437;28;20059;-59
2022/04/13 03:03:31;;;;;;;16.98;9.88;;;11.80;99.90;;;;;;5030319;28;20060;-59
2022/04/13 03:05:57;;;;;;;19.58;9.23;;;11.70;99.90;;;;;;5031671;28;20083;-57
2022/04/13 03:08:24;;;;;;;14.93;9.73;;;11.70;99.90;;;;;;5031607;28;20077;-60
2022/04/13 03:10:51;;;;;;;15.48;9.80;;;11.70;99.90;;;;;;5035690;28;20464;-59
2022/04/13 03:13:18;;;;;;;16.60;9.35;;;11.70;99.90;;;;;;5030692;28;20485;-60
2022/04/13 03:15:44;;;;;;;17.92;9.18;;;11.80;99.90;;;;;;5026851;28;20416;-59
2022/04/13 03:18:11;;;;;;;17.65;9.85;;;11.90;99.90;;;;;;5031652;28;20148;-59
2022/04/13 03:20:38;;;;;;;17.65;9.55;;;11.80;99.90;;;;;;5031333;28;20081;-60
2022/04/13 03:23:05;;;;;;;20.33;9.82;;;11.80;99.90;;;;;;5030010;28;20084;-60
2022/04/13 03:25:33;;;;;;;18.15;9.70;;;11.90;99.90;;;;;;5031416;28;20103;-59
2022/04/13 03:28:00;;;;;;;18.40;9.52;;;11.80;99.90;;;;;;5030527;28;20049;-59
2022/04/13 03:30:27;;;;;;;18.58;9.60;;;11.90;99.90;;;;;;5029971;28;20128;-59
2022/04/13 03:32:53;;;;;;;15.85;9.80;;;11.90;99.90;;;;;;5031209;28;20136;-59
2022/04/13 03:35:22;;;;;;;16.40;9.15;;;11.90;99.90;;;;;;5029609;28;20057;-59
2022/04/13 03:37:49;;;;;;;19.27;9.60;;;11.90;99.90;;;;;;5022935;28;20073;-59
2022/04/13 03:40:16;;;;;;;18.42;10.10;;;11.90;99.90;;;;;;5033851;28;20046;-59
2022/04/13 03:42:42;;;;;;;13.45;9.13;;;12.00;99.90;;;;;;5034559;28;20046;-57
2022/04/13 03:45:11;;;;;;;15.65;8.80;;;12.00;99.90;;;;;;5033016;28;20103;-59
2022/04/13 03:47:39;;;;;;;14.45;9.02;;;12.00;99.90;;;;;;5037298;28;20080;-60
2022/04/13 03:50:06;;;;;;;16.13;8.32;;;12.00;99.90;;;;;;5033345;28;20389;-59
2022/04/13 03:52:34;;;;;;;17.58;9.60;;;12.00;99.90;;;;;;5034486;28;20184;-58
2022/04/13 03:55:01;;;;;;;19.23;9.50;;;12.00;99.90;;;;;;5033131;28;20073;-59
2022/04/13 03:57:28;;;;;;;12.90;9.15;;;12.00;99.90;;;;;;5033575;28;20069;-59
2022/04/13 03:59:55;;;;;;;15.27;8.50;;;12.00;99.90;;;;;;5034446;28;20103;-59
2022/04/13 04:02:22;;;;;;;15.98;9.23;;;12.00;99.90;;;;;;5030288;28;20140;-59
2022/04/13 04:04:49;;;;;;;15.80;9.35;;;11.90;99.90;;;;;;5034152;28;20069;-59
2022/04/13 04:07:16;;;;;;;14.85;7.70;;;12.00;99.90;;;;;;5033151;28;20128;-59
2022/04/13 04:09:44;;;;;;;17.23;8.00;;;12.00;99.90;;;;;;5034558;28;20096;-59
2022/04/13 04:12:10;;;;;;;10.48;7.35;;;12.00;99.90;;;;;;5031070;28;20408;-58
2022/04/13 04:14:37;;;;;;;18.02;8.32;;;12.10;99.90;;;;;;5013468;28;20069;-59
2022/04/13 04:17:04;;;;;;;12.18;8.38;;;12.00;99.90;;;;;;5033587;28;20088;-60
2022/04/13 04:19:31;;;;;;;13.68;8.40;;;12.10;99.90;;;;;;5033309;28;20073;-59
2022/04/13 04:21:58;;;;;;;12.60;7.80;;;12.10;99.90;;;;;;5032502;28;20128;-59
2022/04/13 04:24:26;;;;;;;11.13;7.70;;;12.10;99.90;;;;;;5034151;28;20132;-59
2022/04/13 04:26:53;;;;;;;13.65;7.35;;;12.10;99.90;;;;;;5033565;28;20069;-59
2022/04/13 04:29:24;;;;;;;15.30;7.53;;;12.00;99.90;;;;;;5033675;28;20068;-58
2022/04/13 04:31:53;;;;;;;12.68;7.53;;;12.00;99.90;;;;;;5033645;28;20085;-60
2022/04/13 04:34:22;;;;;;;11.77;7.65;;;12.10;99.90;;;;;;5033757;28;20516;-59
2022/04/13 04:36:49;;;;;;;16.25;7.82;;;12.10;99.90;;;;;;5033500;28;20136;-59
2022/04/13 04:39:16;;;;;;;11.43;6.68;;;12.10;99.90;;;;;;5033744;28;20080;-59
2022/04/13 04:41:43;;;;;;;14.20;7.35;;;12.10;99.90;;;;;;5032348;28;20069;-59
2022/04/13 04:44:10;;;;;;;12.45;6.55;;;12.10;99.90;;;;;;5015411;28;20394;-59
2022/04/13 04:46:37;;;;;;;15.02;7.40;;;12.10;99.90;;;;;;5021277;28;20072;-59
2022/04/13 04:49:04;;;;;;;9.73;6.70;;;12.10;99.90;;;;;;5031518;28;20041;-59
2022/04/13 04:51:31;;;;;;;16.60;7.47;;;12.10;99.90;;;;;;5033598;28;20088;-59
2022/04/13 04:53:59;;;;;;;9.27;6.68;;;12.10;99.90;;;;;;5033642;28;20046;-57
2022/04/13 04:56:26;;;;;;;12.43;7.05;;;12.20;99.90;;;;;;5033005;28;20069;-58
2022/04/13 04:58:52;;;;;;;11.30;7.78;;;12.20;99.90;;;;;;5033787;28;20072;-59
2022/04/13 05:01:25;;;;;;;9.38;6.65;;;12.20;99.90;;;;;;5033708;28;20473;-59
2022/04/13 05:03:52;;;;;;;17.73;7.95;;;12.20;99.90;;;;;;5028503;28;20440;-59
2022/04/13 05:06:21;;;;;;;14.43;7.38;;;12.20;99.90;;;;;;5032313;28;20053;-58
2022/04/13 05:08:48;;;;;;;12.57;7.90;;;12.10;99.90;;;;;;5031748;28;20129;-59
2022/04/13 05:11:15;;;;;;;14.23;7.93;;;12.10;99.90;;;;;;5033059;28;20144;-58
2022/04/13 05:13:45;;;;;;;13.27;7.18;;;12.10;99.90;;;;;;5031657;28;20073;-59
2022/04/13 05:16:13;;;;;;;15.48;7.70;;;12.10;99.90;;;;;;5015986;28;20058;-59
2022/04/13 05:18:41;;;;;;;12.77;7.80;;;12.00;99.90;;;;;;5029172;28;20049;-59
2022/04/13 05:21:08;;;;;;;10.93;7.72;;;12.00;99.90;;;;;;5033252;28;20112;-59
2022/04/13 05:23:35;;;;;;;12.38;7.43;;;11.90;99.90;;;;;;5032418;28;20077;-59
2022/04/13 05:26:02;;;;;;;12.55;7.57;;;11.90;99.90;;;;;;5032825;28;20041;-59
2022/04/13 05:28:29;;;;;;;20.05;8.50;;;11.90;99.90;;;;;;5031658;28;20103;-59
2022/04/13 05:30:56;;;;;;;13.35;8.10;;;11.90;99.90;;;;;;5032958;28;20132;-59
2022/04/13 05:33:23;;;;;;;16.67;8.40;;;11.90;99.90;;;;;;5032680;28;20060;-60
2022/04/13 05:35:50;;;;;;;14.30;8.20;;;11.90;99.90;;;;;;5032767;28;20084;-59
2022/04/13 05:38:17;;;;;;;14.98;8.68;;;11.90;99.90;;;;;;5032320;28;20049;-58
2022/04/13 05:40:44;;;;;;;14.10;7.40;;;11.90;99.90;;;;;;5032417;28;20053;-57
2022/04/13 05:43:11;;;;;;;17.52;9.23;;;11.90;99.90;;;;;;5031577;28;20077;-58
2022/04/13 05:45:38;;;;;;;16.77;9.18;;;11.90;99.90;;;;;;5031399;28;20058;-59
2022/04/13 05:48:05;;;;;;;14.75;9.27;;;11.90;99.90;;;;;;5032282;28;20092;-59
2022/04/13 05:50:32;;;;;;;16.40;8.32;;;11.90;99.90;;;;;;5014516;28;20045;-59
2022/04/13 05:52:58;;;;;;;18.00;9.25;;;11.90;99.90;;;;;;5032372;28;20077;-59
2022/04/13 05:55:26;;;;;;;14.40;9.05;;;11.90;99.90;;;;;;5030965;28;20159;-59
2022/04/13 05:57:53;;;;;;;17.88;8.18;;;11.90;99.90;;;;;;5032398;28;20489;-59
2022/04/13 06:00:19;;;;;;;16.00;9.77;;;11.90;99.90;;;;;;5031721;28;20088;-63
2022/04/13 06:02:46;;;;;;;16.63;8.88;;;11.90;99.90;;;;;;5033054;28;20148;-58
2022/04/13 06:05:13;;;;;;;13.25;8.27;;;11.90;99.90;;;;;;5031171;28;20053;-59
2022/04/13 06:07:41;;;;;;;15.25;8.50;;;12.00;99.90;;;;;;5032414;28;20193;-58
2022/04/13 06:10:09;;;;;;;20.75;8.80;;;12.00;99.90;;;;;;5032038;28;20049;-61
2022/04/13 06:12:36;;;;;;;14.05;8.20;;;12.10;99.90;;;;;;5031186;28;20077;-59
2022/04/13 06:15:04;;;;;;;15.73;8.95;;;12.10;99.90;;;;;;5030218;28;20051;-59
2022/04/13 06:17:31;;;;;;;17.55;9.20;;;12.10;99.90;;;;;;5030733;28;20080;-59
2022/04/13 06:19:58;;;;;;;17.90;8.13;;;12.20;99.90;;;;;;5031856;28;20080;-59
2022/04/13 06:22:25;;;;;;;15.70;8.27;;;12.30;99.90;;;;;;5030662;28;20054;-59
2022/04/13 06:24:51;;;;;;;15.90;9.02;;;12.30;99.90;;;;;;5031578;28;20080;-59
2022/04/13 06:27:21;;;;;;;15.20;8.70;;;12.30;99.90;;;;;;5030600;28;20405;-60
2022/04/13 06:29:48;;;;;;;20.13;10.77;;;12.30;99.90;;;;;;5031540;28;20531;-60
2022/04/13 06:32:15;;;;;;;15.80;8.95;;;12.40;99.90;;;;;;5030080;28;20425;-59
2022/04/13 06:34:42;;;;;;;14.30;9.60;;;12.40;99.90;;;;;;5031396;28;20046;-59
2022/04/13 06:37:09;;;;;;;14.20;9.30;;;12.50;99.90;;;;;;5031309;28;20333;-59
2022/04/13 06:39:35;;;;;;;17.85;10.52;;;12.50;99.90;;;;;;5031648;28;20045;-60
2022/04/13 06:42:03;;;;;;;16.48;8.55;;;12.60;99.90;;;;;;5022120;28;20081;-59
2022/04/13 06:44:29;;;;;;;13.13;7.72;;;12.60;99.90;;;;;;5021789;28;20124;-59
2022/04/13 06:46:58;;;;;;;21.08;10.23;;;12.60;99.90;;;;;;5026332;28;20124;-60
2022/04/13 06:49:25;;;;;;;17.58;9.68;;;12.60;99.90;;;;;;5019783;28;20582;-59
2022/04/13 06:51:52;;;;;;;16.20;8.57;;;12.60;99.90;;;;;;5027939;28;20505;-59
2022/04/13 06:54:27;;;;;;;21.58;8.63;;;12.60;99.90;;;;;;5025612;28;20045;-59
2022/04/13 06:56:54;;;;;;;15.07;8.52;;;12.60;99.90;;;;;;5024143;28;20060;-60
2022/04/13 06:59:25;;;;;;;15.95;8.90;;;12.60;99.90;;;;;;5024140;28;20050;-59
2022/04/13 07:01:52;;;;;;;17.80;8.20;;;12.60;99.90;;;;;;5027524;28;20045;-60
2022/04/13 07:04:19;;;;;;;14.50;7.85;;;12.70;99.90;;;;;;5030741;28;20046;-59
2022/04/13 07:06:45;;;;;;;16.42;7.57;;;12.80;99.90;;;;;;5030403;28;20045;-60
2022/04/13 07:09:12;;;;;;;11.98;7.07;;;12.80;99.90;;;;;;5029648;28;20137;-62
2022/04/13 07:11:39;;;;;;;15.50;7.15;;;12.90;99.90;;;;;;5030204;28;20136;-59
2022/04/13 07:14:06;;;;;;;12.27;6.53;;;12.90;99.90;;;;;;5020392;28;20452;-59
2022/04/13 07:16:33;;;;;;;19.10;6.75;;;13.00;99.90;;;;;;5020227;28;20042;-59
2022/04/13 07:19:00;;;;;;;19.17;7.40;;;13.00;99.90;;;;;;5028820;28;20060;-59
2022/04/13 07:21:27;;;;;;;9.07;6.28;;;13.10;99.90;;;;;;5026038;28;20095;-59
2022/04/13 07:24:13;;;;;;;11.13;4.93;;;13.20;99.90;;;;;;5033127;28;20111;-59
2022/04/13 07:26:40;;;;;;;11.65;4.35;;;13.30;99.90;;;;;;5034355;28;20049;-60
2022/04/13 07:29:07;;;;;;;11.93;4.72;;;13.30;99.90;;;;;;5033027;28;20080;-58
2022/04/13 07:31:34;;;;;;;16.20;3.80;;;13.40;99.90;;;;;;5032643;28;20112;-59
2022/04/13 07:34:02;;;;;;;6.60;3.33;;;13.50;99.90;;;;;;5034151;28;20096;-59
2022/04/13 07:36:29;;;;;;;11.18;3.03;;;13.60;99.90;;;;;;5034274;28;20476;-59
2022/04/13 07:38:56;;;;;;;11.57;4.30;;;13.60;99.90;;;;;;5032726;28;20046;-59
2022/04/13 07:41:23;;;;;;;9.70;3.80;;;13.70;99.90;;;;;;5024130;28;20085;-59
2022/04/13 07:43:50;;;;;;;14.75;4.32;;;13.80;99.90;;;;;;5030621;28;20041;-59
2022/04/13 07:46:17;;;;;;;11.82;4.45;;;13.80;99.90;;;;;;5034317;28;20045;-59
2022/04/13 07:48:44;;;;;;;11.30;3.40;;;13.90;99.90;;;;;;5033823;28;20054;-60
2022/04/13 07:51:11;;;;;;;12.98;3.88;;;13.90;99.90;;;;;;5027630;28;20060;-59
2022/04/13 07:53:38;;;;;;;11.30;4.00;;;14.00;99.90;;;;;;5033112;28;20128;-58
2022/04/13 07:56:05;;;;;;;9.38;3.85;;;14.10;99.90;;;;;;5033870;28;20144;-59
2022/04/13 07:58:32;;;;;;;9.50;3.42;;;14.20;99.90;;;;;;5032227;28;20412;-61
2022/04/13 08:00:59;;;;;;;6.68;2.92;;;14.20;99.90;;;;;;5024979;28;20046;-59
2022/04/13 08:03:26;;;;;;;6.72;2.90;;;14.30;99.90;;;;;;5029869;28;20053;-60
2022/04/13 08:06:02;;;;;;;11.23;3.88;;;14.30;99.90;;;;;;5033317;28;20096;-59
2022/04/13 08:08:30;;;;;;;8.32;3.13;;;14.40;99.90;;;;;;5033146;28;20084;-59
2022/04/13 08:10:56;;;;;;;10.30;3.80;;;14.30;99.90;;;;;;5028670;28;20079;-59
2022/04/13 08:13:23;;;;;;;10.77;4.72;;;14.40;99.90;;;;;;5018719;28;20099;-59
2022/04/13 08:16:10;;;;;;;8.75;3.90;;;14.40;99.90;;;;;;5026206;28;20056;-59
2022/04/13 08:18:38;;;;;;;9.45;4.53;;;14.30;99.90;;;;;;5029166;28;20135;-59
2022/04/13 08:21:05;;;;;;;14.95;4.85;;;14.40;99.90;;;;;;5026592;28;20088;-59
2022/04/13 08:23:31;;;;;;;13.25;4.78;;;14.40;99.90;;;;;;5024438;28;20041;-60
2022/04/13 08:25:58;;;;;;;6.47;3.85;;;14.50;99.90;;;;;;5016616;28;20069;-60
2022/04/13 08:28:25;;;;;;;8.38;3.63;;;14.50;99.90;;;;;;5017957;28;20492;-59
2022/04/13 08:30:52;;;;;;;10.32;4.13;;;14.60;99.90;;;;;;5033304;28;20048;-59
2022/04/13 08:33:18;;;;;;;8.20;3.42;;;14.60;99.90;;;;;;5029971;28;20092;-60
2022/04/13 08:35:45;;;;;;;11.73;3.80;;;14.60;99.90;;;;;;5016909;28;20049;-59
2022/04/13 08:38:12;;;;;;;9.50;3.22;;;14.70;99.90;;;;;;5033718;28;20046;-59
2022/04/13 08:40:44;;;;;;;5.15;3.00;;;14.70;99.90;;;;;;5029561;28;20102;-59
2022/04/13 08:43:11;;;;;;;20.67;3.08;;;14.80;99.90;;;;;;5027064;28;20053;-59
2022/04/13 08:45:55;;;;;;;5.80;2.10;;;14.90;99.90;;;;;;5030118;28;20085;-59
2022/04/13 08:48:23;;;;;;;;;;;15.00;99.90;;;;;;5016273;28;20088;-59
2022/04/13 08:50:59;;;;;;;7.97;3.17;;;15.00;99.90;;;;;;5031322;28;20316;-61
2022/04/13 08:53:29;;;;;;;5.90;2.55;;;15.10;99.90;;;;;;4680887;28;10000777;-59
2022/04/13 08:55:57;;;;;;;7.00;2.35;;;15.10;99.90;;;;;;5027654;28;20052;-59
2022/04/13 08:58:40;;;;;;;16.52;4.93;;;15.10;99.90;;;;;;5024285;28;20089;-60
2022/04/13 09:01:17;;;;;;;6.95;2.80;;;15.10;99.90;;;;;;5028884;28;20050;-61
2022/04/13 09:03:48;;;;;;;9.18;2.50;;;15.20;99.90;;;;;;5026836;28;20049;-60
2022/04/13 09:06:15;;;;;;;10.77;2.85;;;15.20;99.90;;;;;;5027018;28;20484;-60
2022/04/13 09:08:56;;;;;;;8.52;2.40;;;15.30;99.90;;;;;;5019295;28;20081;-60
2022/04/13 09:11:23;;;;;;;6.10;2.38;;;15.40;99.90;;;;;;5026348;28;20055;-58
2022/04/13 09:13:50;;;;;;;9.63;2.85;;;15.40;99.90;;;;;;5029494;28;20049;-60
2022/04/13 09:16:17;;;;;;;7.13;2.25;;;15.50;99.90;;;;;;5022193;28;20503;-59
2022/04/13 09:18:44;;;;;;;7.88;3.15;;;15.60;99.90;;;;;;5029623;28;20049;-60
2022/04/13 09:21:12;;;;;;;5.13;2.58;;;15.60;99.90;;;;;;5029124;28;20057;-59
2022/04/13 09:23:40;;;;;;;6.03;2.30;;;15.60;99.90;;;;;;5018354;28;20077;-60
2022/04/13 09:26:07;;;;;;;5.10;2.35;;;15.50;99.90;;;;;;5021910;28;20046;-59
2022/04/13 09:28:34;;;;;;;12.40;2.40;;;15.60;99.90;;;;;;5026952;28;20049;-59
2022/04/13 09:31:01;;;;;;;4.13;2.47;;;15.70;99.90;;;;;;5024522;28;20041;-58
2022/04/13 09:33:27;;;;;;;7.97;2.80;;;15.70;99.90;;;;;;5025639;28;20052;-60
2022/04/13 09:35:54;;;;;;;7.50;2.60;;;15.70;99.90;;;;;;5020628;28;20081;-60
2022/04/13 09:38:21;;;;;;;14.43;2.88;;;15.70;99.90;;;;;;5028442;28;20103;-60
2022/04/13 09:40:51;;;;;;;14.68;3.25;;;15.60;99.90;;;;;;5017384;28;20046;-60
2022/04/13 09:43:19;;;;;;;6.57;2.47;;;15.60;99.90;;;;;;5026139;28;20073;-59
2022/04/13 09:45:49;;;;;;;6.63;2.70;;;15.70;99.90;;;;;;5026532;28;20076;-60
2022/04/13 09:48:20;;;;;;;7.43;3.15;;;15.80;99.90;;;;;;5027468;28;20053;-59
2022/04/13 09:50:50;;;;;;;7.35;2.67;;;15.80;99.90;;;;;;4998737;28;20041;-59
2022/04/13 09:53:18;;;;;;;6.68;2.60;;;15.80;99.90;;;;;;5025339;28;20049;-59
2022/04/13 09:56:05;;;;;;;5.50;2.47;;;15.80;99.90;;;;;;5018001;28;20050;-59
2022/04/13 09:58:33;;;;;;;10.25;2.47;;;15.90;99.90;;;;;;5021356;28;20501;-59
2022/04/13 10:01:02;;;;;;;4.55;2.20;;;16.00;99.90;;;;;;5018754;28;20092;-59
2022/04/13 10:03:29;;;;;;;9.07;3.00;;;16.10;99.90;;;;;;5020181;28;20132;-59
2022/04/13 10:05:58;;;;;;;9.77;2.40;;;16.10;99.90;;;;;;5018949;28;20061;-58
2022/04/13 10:08:26;;;;;;;7.28;2.20;;;16.10;99.90;;;;;;5012568;28;20107;-59
2022/04/13 10:10:56;;;;;;;5.88;2.22;;;16.20;99.90;;;;;;5017280;28;20049;-59
2022/04/13 10:13:30;;;;;;;7.35;2.30;;;16.20;99.90;;;;;;5019862;28;20116;-58
2022/04/13 10:15:58;;;;;;;18.02;2.90;;;16.30;99.90;;;;;;5025655;28;20060;-59
2022/04/13 10:18:25;;;;;;;6.15;2.05;;;16.50;99.90;;;;;;5025513;28;20398;-59
2022/04/13 10:20:52;;;;;;;8.07;2.63;;;16.60;99.90;;;;;;5027226;28;20045;-59
2022/04/13 10:23:18;;;;;;;4.72;2.20;;;16.70;99.90;;;;;;5024266;28;20128;-59
2022/04/13 10:25:45;;;;;;;7.75;2.33;;;16.70;99.90;;;;;;5027927;28;20445;-59
2022/04/13 10:28:13;;;;;;;8.07;2.00;;;16.70;99.90;;;;;;5028854;28;20048;-59
2022/04/13 10:30:42;;;;;;;8.88;2.17;;;16.70;99.90;;;;;;5008316;28;20053;-59
2022/04/13 10:33:10;;;;;;;3.83;1.75;;;16.80;99.90;;;;;;5027300;28;20416;-59
2022/04/13 10:35:38;;;;;;;6.45;2.47;;;16.80;99.90;;;;;;5026114;28;20061;-59
2022/04/13 10:38:05;;;;;;;4.30;1.65;;;16.90;99.90;;;;;;5025398;28;20069;-59
2022/04/13 10:40:36;;;;;;;5.93;2.25;;;16.90;99.90;;;;;;5029456;28;20107;-60
2022/04/13 10:43:04;;;;;;;10.38;2.58;;;16.80;99.90;;;;;;5028739;28;20095;-59
2022/04/13 10:45:33;;;;;;;6.68;2.10;;;16.80;99.90;;;;;;5028843;28;20394;-59
2022/04/13 10:48:07;;;;;;;4.43;2.00;;;16.80;99.90;;;;;;5018584;28;20084;-59
2022/04/13 10:50:35;;;;;;;6.38;1.90;;;16.90;99.90;;;;;;5027637;28;20049;-59
2022/04/13 10:53:23;;;;;;;4.75;1.70;;;17.00;99.90;;;;;;5018306;28;20239;-59
2022/04/13 10:56:00;;;;;;;5.10;1.70;;;17.00;99.40;;;;;;5027285;28;20076;-59
2022/04/13 10:58:58;;;;;;;6.57;1.60;;;17.10;99.20;;;;;;5025341;28;20053;-60
2022/04/13 11:01:37;;;;;;;3.00;0.90;;;17.20;98.80;;;;;;5027885;28;20083;-60
2022/04/13 11:04:06;;;;;;;2.65;1.33;;;17.30;99.70;;;;;;5020773;28;20048;-58
2022/04/13 11:06:33;;;;;;;4.03;1.60;;;17.50;99.40;;;;;;5028804;28;20130;-59
2022/04/13 11:09:11;;;;;;;4.82;1.80;;;17.50;99.60;;;;;;5027221;28;20091;-60
2022/04/13 11:11:38;;;;;;;4.70;1.60;;;17.50;98.60;;;;;;5027297;28;20560;-59
2022/04/13 11:14:23;;;;;;;3.67;1.35;;;17.60;99.30;;;;;;5016850;28;20096;-60
2022/04/13 11:17:15;;;;;;;6.10;2.33;;;17.60;98.10;;;;;;5026980;28;20041;-59
2022/04/13 11:19:42;;;;;;;4.47;1.42;;;17.80;98.00;;;;;;5027200;28;20132;-59
2022/04/13 11:22:11;;;;;;;5.38;0.98;;;17.90;98.20;;;;;;5028368;28;20096;-59
2022/04/13 11:24:42;;;;;;;5.70;1.60;;;17.70;98.00;;;;;;5022116;28;20076;-59
2022/04/13 11:27:10;;;;;;;5.70;2.10;;;17.60;98.30;;;;;;5027652;28;20107;-60
2022/04/13 11:29:45;;;;;;;3.63;1.08;;;17.60;98.40;;;;;;5025220;28;20050;-58
2022/04/13 11:32:13;;;;;;;6.15;1.27;;;17.50;97.30;;;;;;5012372;28;20103;-59
2022/04/13 11:34:50;;;;;;;12.65;1.55;;;17.50;97.80;;;;;;5021231;28;20056;-57
2022/04/13 11:37:25;;;;;;;6.53;1.65;;;17.70;97.30;;;;;;5028465;28;20073;-59
2022/04/13 11:39:59;;;;;;;5.15;1.52;;;17.80;97.20;;;;;;4677070;28;10000286;-59
2022/04/13 11:42:26;;;;;;;2.60;1.55;;;17.80;97.30;;;;;;5022712;28;20439;-59
2022/04/13 11:45:19;;;;;;;5.38;1.38;;;17.90;97.20;;;;;;5022570;28;20045;-60
2022/04/13 11:47:49;;;;;;;4.55;0.93;;;18.00;97.20;;;;;;5021886;28;20042;-59
2022/04/13 11:50:17;;;;;;;6.95;2.10;;;18.00;97.60;;;;;;5017662;28;20146;-61
2022/04/13 11:52:48;;;;;;;7.20;1.60;;;18.10;97.80;;;;;;5018428;28;20473;-60
2022/04/13 11:55:35;;;;;;;6.25;1.38;;;18.10;97.40;;;;;;5020677;28;20108;-59
2022/04/13 11:58:07;;;;;;;4.68;1.92;;;18.20;97.20;;;;;;5026507;28;20042;-60
2022/04/13 12:00:41;;;;;;;2.53;1.05;;;18.30;97.50;;;;;;5027178;28;20042;-58
2022/04/13 12:03:26;;;;;;;6.82;1.85;;;18.30;96.30;;;;;;5029106;28;20041;-59
2022/04/13 12:05:55;;;;;;;8.10;1.38;;;18.40;95.00;;;;;;5028396;28;20045;-58
2022/04/13 12:08:26;;;;;;;2.45;0.98;;;18.40;96.80;;;;;;5028806;28;20099;-59
2022/04/13 12:11:19;;;;;;;5.60;1.02;;;18.40;96.70;;;;;;5025508;28;20224;-59
2022/04/13 12:13:58;;;;;;;3.95;1.23;;;18.50;95.80;;;;;;5025228;28;20159;-60
2022/04/13 12:16:26;;;;;;;3.15;1.50;;;18.40;95.10;;;;;;5027829;28;20570;-59
2022/04/13 12:18:55;;;;;;;4.63;1.60;;;18.40;96.10;;;;;;5027945;28;20053;-59
2022/04/13 12:21:24;;;;;;;7.20;1.40;;;18.30;96.10;;;;;;5018098;28;20077;-59
2022/04/13 12:23:53;;;;;;;4.82;1.95;;;18.20;95.90;;;;;;5027904;28;20519;-60
2022/04/13 12:26:38;;;;;;;3.80;1.05;;;18.20;96.60;;;;;;5027141;28;20578;-59
2022/04/13 12:29:22;;;;;;;3.72;1.05;;;18.20;95.60;;;;;;5023192;28;20360;-59
2022/04/13 12:31:53;;;;;;;5.32;0.93;;;18.10;95.50;;;;;;5020558;28;20088;-59
2022/04/13 12:34:21;;;;;;;2.13;1.00;;;18.00;95.80;;;;;;5018063;28;20049;-59
2022/04/13 12:37:01;;;;;;;4.72;1.50;;;18.20;96.40;;;;;;5025338;28;20049;-61
2022/04/13 12:39:32;;;;;;;6.03;1.00;;;18.20;95.70;;;;;;5027099;28;20076;-58
2022/04/13 12:42:04;;;;;;;6.18;1.67;;;18.20;96.50;;;;;;5025605;28;20144;-59
2022/04/13 12:44:30;;;;;;;4.53;0.93;;;18.20;95.70;;;;;;5016828;28;20084;-60
2022/04/13 12:47:04;;;;;;;3.20;1.17;;;18.20;96.50;;;;;;5027559;28;20052;-58